Time;durP1;ratioP1;P1;durP2;ratioP2;P2;SDS_P1;SDS_P2;PMS_P1;PMS_P2;Temp;Humidity;BMP_temperature;BMP_pressure;BME280_temperature;BME280_humidity;BME280_pressure;Samples;Min_cycle;Max_cycle;Signal;HPM_P1;HPM_P2
2022/06/20 00:01:08;;;;;;;0.00;0.00;;;13.10;99.90;;;;;;5116722;27;20125;-79
2022/06/20 00:03:43;;;;;;;0.00;0.00;;;13.10;99.90;;;;;;5117678;27;20092;-79
2022/06/20 00:06:15;;;;;;;0.00;0.00;;;13.10;99.90;;;;;;5118655;27;20043;-80
2022/06/20 00:08:40;;;;;;;0.00;0.00;;;13.10;99.90;;;;;;5119078;27;20046;-79
2022/06/20 00:11:11;;;;;;;0.00;0.00;;;13.00;99.90;;;;;;5118702;27;20043;-79
2022/06/20 00:13:39;;;;;;;0.00;0.00;;;13.10;99.90;;;;;;5118675;27;20043;-79
2022/06/20 00:16:05;;;;;;;0.00;0.00;;;13.10;99.90;;;;;;5118591;27;20039;-79
2022/06/20 00:18:31;;;;;;;0.00;0.00;;;13.10;99.90;;;;;;5118663;27;20047;-79
2022/06/20 00:20:57;;;;;;;0.00;0.00;;;13.10;99.90;;;;;;5118272;27;20096;-79
2022/06/20 00:23:22;;;;;;;0.00;0.00;;;13.10;99.90;;;;;;5118632;27;20364;-80
2022/06/20 00:25:48;;;;;;;0.00;0.00;;;13.00;99.90;;;;;;5118012;27;20079;-79
2022/06/20 00:28:15;;;;;;;0.00;0.00;;;13.00;99.90;;;;;;5118545;27;20058;-80
2022/06/20 00:30:41;;;;;;;0.00;0.00;;;12.90;99.90;;;;;;5101421;27;20089;-79
2022/06/20 00:33:07;;;;;;;0.00;0.00;;;12.90;99.90;;;;;;5118435;27;20050;-79
2022/06/20 00:35:34;;;;;;;0.00;0.00;;;12.80;99.90;;;;;;5117938;27;20046;-79
2022/06/20 00:38:02;;;;;;;0.00;0.00;;;12.80;99.90;;;;;;5118870;27;20039;-79
2022/06/20 00:40:39;;;;;;;0.00;0.00;;;12.80;99.90;;;;;;5101158;27;20131;-79
2022/06/20 00:43:09;;;;;;;0.00;0.00;;;12.70;99.90;;;;;;5118063;27;20524;-80
2022/06/20 00:45:40;;;;;;;0.00;0.00;;;12.70;99.90;;;;;;5118160;27;20501;-79
2022/06/20 00:48:14;;;;;;;0.00;0.00;;;12.80;99.90;;;;;;5117994;27;20047;-79
2022/06/20 00:50:40;;;;;;;0.00;0.00;;;12.80;99.90;;;;;;5117895;27;20095;-80
2022/06/20 00:53:18;;;;;;;0.00;0.00;;;12.80;99.90;;;;;;5117452;27;20086;-79
2022/06/20 00:56:25;;;;;;;0.00;0.00;;;12.80;99.90;;;;;;5117988;27;20051;-79
2022/06/20 00:59:07;;;;;;;0.00;0.00;;;12.80;99.90;;;;;;5117412;27;20047;-79
2022/06/20 01:01:39;;;;;;;0.00;0.00;;;12.80;99.90;;;;;;5117944;27;20125;-79
2022/06/20 01:04:18;;;;;;;0.00;0.00;;;12.80;99.90;;;;;;5117443;27;20079;-79
2022/06/20 01:06:56;;;;;;;0.00;0.00;;;12.80;99.90;;;;;;5100605;27;20087;-79
2022/06/20 01:09:27;;;;;;;0.00;0.00;;;12.80;99.90;;;;;;5100841;27;20051;-79
2022/06/20 01:11:56;;;;;;;0.00;0.00;;;12.80;99.90;;;;;;5100654;27;20047;-79
2022/06/20 01:14:38;;;;;;;0.00;0.00;;;12.80;99.90;;;;;;5100164;27;20043;-79
2022/06/20 01:17:27;;;;;;;0.00;0.00;;;12.80;99.90;;;;;;5100248;27;20078;-79
2022/06/20 01:20:01;;;;;;;0.00;0.00;;;12.70;99.90;;;;;;5106808;27;20048;-79
2022/06/20 01:22:36;;;;;;;0.00;0.00;;;12.70;99.90;;;;;;5100091;27;20049;-79
2022/06/20 01:25:08;;;;;;;0.00;0.00;;;12.60;99.90;;;;;;5117487;27;20046;-79
2022/06/20 01:27:45;;;;;;;0.00;0.00;;;12.60;99.90;;;;;;5117226;27;20069;-79
2022/06/20 01:30:11;;;;;;;0.00;0.00;;;12.60;99.90;;;;;;5117081;27;20098;-79
2022/06/20 01:32:38;;;;;;;0.52;0.22;;;12.50;99.90;;;;;;5117233;27;20046;-79
2022/06/20 01:35:07;;;;;;;0.00;0.00;;;12.60;99.90;;;;;;5116884;27;20131;-79
2022/06/20 01:37:35;;;;;;;0.00;0.00;;;12.50;99.90;;;;;;5099127;28;20491;-79
2022/06/20 01:40:06;;;;;;;0.00;0.00;;;12.60;99.90;;;;;;5100039;27;20058;-79
2022/06/20 01:42:33;;;;;;;0.00;0.00;;;12.60;99.90;;;;;;5116952;27;20495;-79
2022/06/20 01:45:04;;;;;;;0.00;0.00;;;12.60;99.90;;;;;;5117051;27;20116;-80
2022/06/20 01:47:31;;;;;;;0.00;0.00;;;12.70;99.90;;;;;;5117025;27;20070;-79
2022/06/20 01:50:03;;;;;;;0.10;0.10;;;12.70;99.90;;;;;;5116902;27;20050;-79
2022/06/20 01:52:42;;;;;;;0.00;0.00;;;12.70;99.90;;;;;;5116479;27;20055;-80
2022/06/20 01:55:12;;;;;;;0.00;0.00;;;12.80;99.90;;;;;;5116795;27;20050;-79
2022/06/20 01:57:40;;;;;;;0.00;0.00;;;12.80;99.90;;;;;;5116924;27;20047;-79
2022/06/20 02:00:26;;;;;;;0.00;0.00;;;12.80;99.90;;;;;;5116807;27;20043;-80
2022/06/20 02:02:55;;;;;;;0.17;0.05;;;12.80;99.90;;;;;;5116411;28;20052;-79
2022/06/20 02:05:25;;;;;;;0.00;0.00;;;12.80;99.90;;;;;;5116795;28;20464;-80
2022/06/20 02:07:51;;;;;;;0.00;0.00;;;12.80;99.90;;;;;;5099725;27;20047;-79
2022/06/20 02:10:28;;;;;;;0.00;0.00;;;12.80;99.90;;;;;;5116572;27;20482;-79
2022/06/20 02:12:57;;;;;;;0.00;0.00;;;12.80;99.90;;;;;;5099776;28;20051;-79
2022/06/20 02:15:24;;;;;;;0.00;0.00;;;12.80;99.90;;;;;;5099172;28;20129;-80
2022/06/20 02:17:50;;;;;;;0.00;0.00;;;12.80;99.90;;;;;;5117034;28;20050;-80
2022/06/20 02:20:28;;;;;;;0.00;0.00;;;12.80;99.90;;;;;;5117112;28;20390;-80
2022/06/20 02:22:56;;;;;;;0.00;0.00;;;12.80;99.90;;;;;;5099156;28;20054;-79
2022/06/20 02:25:25;;;;;;;0.00;0.00;;;12.80;99.90;;;;;;5099392;28;20466;-79
2022/06/20 02:27:56;;;;;;;0.00;0.00;;;12.80;99.90;;;;;;5116546;28;20075;-79
2022/06/20 02:30:21;;;;;;;0.00;0.00;;;12.80;99.90;;;;;;5116524;28;20091;-80
2022/06/20 02:32:53;;;;;;;0.08;0.08;;;12.90;99.90;;;;;;5116426;28;20089;-79
2022/06/20 02:35:20;;;;;;;0.00;0.00;;;12.80;99.90;;;;;;5098918;28;20517;-80
2022/06/20 02:37:47;;;;;;;0.00;0.00;;;12.90;99.90;;;;;;5099415;28;20039;-80
2022/06/20 02:40:20;;;;;;;0.00;0.00;;;12.90;99.90;;;;;;5116361;28;20039;-80
2022/06/20 02:42:51;;;;;;;0.03;0.03;;;12.90;99.90;;;;;;5099389;28;20058;-80
2022/06/20 02:45:18;;;;;;;0.65;0.32;;;12.90;99.90;;;;;;5116552;28;20398;-80
2022/06/20 02:47:47;;;;;;;0.00;0.00;;;12.90;99.90;;;;;;5099746;28;20455;-80
2022/06/20 02:50:19;;;;;;;0.00;0.00;;;12.80;99.90;;;;;;5119091;27;20563;-80
2022/06/20 02:52:49;;;;;;;0.00;0.00;;;12.80;99.90;;;;;;5120696;27;20072;-79
2022/06/20 02:55:17;;;;;;;0.00;0.00;;;12.80;99.90;;;;;;5102836;27;20046;-79
2022/06/20 02:57:46;;;;;;;0.00;0.00;;;12.80;99.90;;;;;;5103796;27;20410;-80
2022/06/20 03:00:17;;;;;;;0.08;0.08;;;12.80;99.90;;;;;;5120188;27;20047;-80
2022/06/20 03:02:47;;;;;;;0.00;0.00;;;12.70;99.90;;;;;;5120222;27;20048;-79
2022/06/20 03:05:15;;;;;;;0.00;0.00;;;12.70;99.90;;;;;;5120109;27;20042;-80
2022/06/20 03:07:41;;;;;;;0.00;0.00;;;12.60;99.90;;;;;;5119703;27;20050;-80
2022/06/20 03:10:38;;;;;;;0.00;0.00;;;12.60;99.90;;;;;;5119945;27;20058;-80
2022/06/20 03:13:04;;;;;;;0.00;0.00;;;12.60;99.90;;;;;;5102401;27;20055;-80
2022/06/20 03:15:30;;;;;;;0.00;0.00;;;12.50;99.90;;;;;;5102095;27;20111;-80
2022/06/20 03:17:57;;;;;;;0.00;0.00;;;12.50;99.90;;;;;;5119774;27;20130;-79
2022/06/20 03:20:28;;;;;;;0.00;0.00;;;12.50;99.90;;;;;;5119719;27;20051;-79
2022/06/20 03:23:10;;;;;;;0.20;0.20;;;12.50;99.90;;;;;;5102854;27;20051;-79
2022/06/20 03:25:39;;;;;;;0.00;0.00;;;12.50;99.90;;;;;;5102581;27;20055;-80
2022/06/20 03:28:07;;;;;;;0.00;0.00;;;12.40;99.90;;;;;;5119687;27;20039;-80
2022/06/20 03:30:35;;;;;;;0.00;0.00;;;12.40;99.90;;;;;;5102493;27;20112;-80
2022/06/20 03:33:04;;;;;;;0.00;0.00;;;12.50;99.90;;;;;;5102760;27;20082;-80
2022/06/20 03:35:31;;;;;;;0.00;0.00;;;12.40;99.90;;;;;;5119195;27;20543;-80
2022/06/20 03:38:03;;;;;;;0.00;0.00;;;12.40;99.90;;;;;;5102493;27;20043;-80
2022/06/20 03:40:29;;;;;;;0.00;0.00;;;12.30;99.90;;;;;;5102549;27;20051;-80
2022/06/20 03:42:57;;;;;;;0.00;0.00;;;12.30;99.90;;;;;;5119207;27;20073;-80
2022/06/20 03:45:27;;;;;;;0.00;0.00;;;12.30;99.90;;;;;;5119323;27;20107;-80
2022/06/20 03:48:11;;;;;;;0.00;0.00;;;12.30;99.90;;;;;;5102220;27;20106;-79
2022/06/20 03:50:56;;;;;;;0.00;0.00;;;12.20;99.90;;;;;;5119522;27;20398;-80
2022/06/20 03:53:50;;;;;;;0.03;0.00;;;12.30;99.90;;;;;;5114948;28;20058;-79
2022/06/20 03:56:25;;;;;;;0.00;0.00;;;12.20;99.90;;;;;;5098662;28;20063;-80
2022/06/20 03:58:59;;;;;;;0.00;0.00;;;12.20;99.90;;;;;;5115845;28;20047;-80
2022/06/20 04:01:45;;;;;;;0.00;0.00;;;12.20;99.90;;;;;;5114747;28;20043;-80
2022/06/20 04:04:21;;;;;;;0.00;0.00;;;12.20;99.90;;;;;;5115767;28;20047;-80
2022/06/20 04:07:01;;;;;;;0.00;0.00;;;12.20;99.90;;;;;;5115387;28;20483;-80
2022/06/20 04:12:23;;;;;;;0.00;0.00;;;12.20;99.90;;;;;;5115807;28;20055;-80
2022/06/20 04:14:55;;;;;;;0.00;0.00;;;12.10;99.90;;;;;;5098626;28;20051;-80
2022/06/20 04:20:39;;;;;;;0.20;0.20;;;12.10;99.90;;;;;;5115194;28;20046;-80
2022/06/20 04:23:16;;;;;;;0.00;0.00;;;12.10;99.90;;;;;;5115319;28;20093;-80
2022/06/20 04:25:49;;;;;;;0.00;0.00;;;12.10;99.90;;;;;;5098491;28;20053;-80
2022/06/20 04:28:27;;;;;;;0.00;0.00;;;12.10;99.90;;;;;;5097646;28;20055;-80
2022/06/20 04:31:28;;;;;;;0.00;0.00;;;12.10;99.90;;;;;;5114991;28;20047;-80
2022/06/20 04:34:08;;;;;;;0.00;0.00;;;12.10;99.90;;;;;;5039983;28;20114;-79
2022/06/20 04:36:51;;;;;;;0.13;0.13;;;12.10;99.90;;;;;;5040071;28;20532;-80
2022/06/20 04:39:39;;;;;;;0.00;0.00;;;12.10;99.90;;;;;;5039934;28;20052;-80
2022/06/20 04:42:04;;;;;;;0.00;0.00;;;12.20;99.90;;;;;;5056929;28;20056;-80
2022/06/20 04:44:54;;;;;;;0.00;0.00;;;12.20;99.90;;;;;;5056381;28;20061;-80
2022/06/20 04:47:35;;;;;;;0.08;0.05;;;12.20;99.90;;;;;;5039139;28;20061;-80
2022/06/20 04:50:01;;;;;;;0.00;0.00;;;12.30;99.90;;;;;;5050542;28;20201;-80
2022/06/20 04:52:28;;;;;;;0.00;0.00;;;12.30;99.90;;;;;;5021501;28;20125;-80
2022/06/20 04:54:56;;;;;;;0.00;0.00;;;12.40;99.90;;;;;;5046316;28;20090;-80
2022/06/20 04:57:25;;;;;;;0.00;0.00;;;12.40;99.90;;;;;;5044234;28;20049;-80
2022/06/20 04:59:54;;;;;;;0.00;0.00;;;12.50;99.90;;;;;;5031438;28;20041;-79
2022/06/20 05:02:22;;;;;;;0.00;0.00;;;12.50;99.90;;;;;;5028194;28;20524;-80
2022/06/20 05:04:50;;;;;;;0.00;0.00;;;12.60;99.90;;;;;;5028924;28;20455;-80
2022/06/20 05:07:34;;;;;;;0.00;0.00;;;12.60;99.90;;;;;;5021763;28;20063;-80
2022/06/20 05:10:35;;;;;;;0.00;0.00;;;12.60;99.90;;;;;;5056117;28;20051;-80
2022/06/20 05:13:09;;;;;;;0.00;0.00;;;12.60;99.90;;;;;;5114401;28;20079;-80
2022/06/20 05:15:38;;;;;;;0.00;0.00;;;12.60;99.90;;;;;;5113821;28;20044;-80
2022/06/20 05:18:34;;;;;;;0.03;0.03;;;12.70;99.90;;;;;;5114149;28;20044;-80
2022/06/20 05:21:24;;;;;;;0.00;0.00;;;12.70;99.90;;;;;;5114056;28;20047;-80
2022/06/20 05:23:56;;;;;;;0.30;0.00;;;12.80;99.90;;;;;;5113548;28;20096;-80
2022/06/20 05:26:28;;;;;;;0.00;0.00;;;12.80;99.90;;;;;;5097332;28;20066;-80
2022/06/20 05:28:56;;;;;;;0.00;0.00;;;12.90;99.90;;;;;;5113878;28;20098;-80
2022/06/20 05:31:43;;;;;;;0.00;0.00;;;13.00;99.90;;;;;;5096879;28;20051;-80
2022/06/20 05:34:19;;;;;;;0.00;0.00;;;13.00;99.90;;;;;;5114200;28;20035;-79
2022/06/20 05:37:08;;;;;;;0.00;0.00;;;13.10;99.90;;;;;;5113885;28;20058;-80
2022/06/20 05:39:56;;;;;;;0.75;0.20;;;13.10;99.90;;;;;;5096685;28;20047;-80
2022/06/20 05:42:22;;;;;;;0.00;0.00;;;13.30;99.90;;;;;;5113760;28;20043;-80
2022/06/20 05:44:48;;;;;;;0.00;0.00;;;13.50;99.90;;;;;;5096649;28;20088;-80
2022/06/20 05:47:25;;;;;;;0.00;0.00;;;13.70;99.90;;;;;;5096611;28;20057;-80
2022/06/20 05:50:04;;;;;;;0.00;0.00;;;14.30;99.90;;;;;;5112969;28;20091;-80
2022/06/20 05:52:31;;;;;;;0.00;0.00;;;14.90;99.90;;;;;;5113324;28;20058;-80
2022/06/20 05:55:21;;;;;;;0.00;0.00;;;15.20;99.90;;;;;;5113269;28;20483;-79
2022/06/20 05:57:49;;;;;;;0.00;0.00;;;15.20;99.90;;;;;;5113643;28;20126;-80
2022/06/20 06:00:30;;;;;;;0.43;0.35;;;15.00;99.90;;;;;;5112666;28;20051;-80
2022/06/20 06:03:02;;;;;;;0.00;0.00;;;14.90;99.90;;;;;;5113740;28;20083;-80
2022/06/20 06:05:33;;;;;;;0.00;0.00;;;14.70;99.90;;;;;;5113690;28;20043;-80
2022/06/20 06:08:21;;;;;;;0.00;0.00;;;14.60;99.90;;;;;;5113285;28;20047;-80
2022/06/20 06:11:00;;;;;;;0.05;0.05;;;14.60;99.90;;;;;;5096425;28;20055;-80
2022/06/20 06:13:41;;;;;;;0.05;0.00;;;14.50;99.90;;;;;;5113337;28;20528;-80
2022/06/20 06:19:22;;;;;;;0.10;0.00;;;14.60;99.90;;;;;;5113051;28;20039;-80
2022/06/20 06:21:51;;;;;;;0.00;0.00;;;14.90;99.90;;;;;;5113233;28;20044;-79
2022/06/20 06:24:20;;;;;;;0.00;0.00;;;14.90;99.90;;;;;;5097107;28;20051;-80
2022/06/20 06:26:48;;;;;;;0.00;0.00;;;14.90;99.90;;;;;;5117712;28;20475;-80
2022/06/20 06:29:23;;;;;;;0.00;0.00;;;14.90;99.90;;;;;;5117452;28;20050;-80
2022/06/20 06:31:52;;;;;;;0.00;0.00;;;14.90;99.90;;;;;;5100680;28;20047;-80
2022/06/20 06:34:46;;;;;;;0.13;0.13;;;14.90;99.90;;;;;;5116881;28;20051;-80
2022/06/20 06:37:23;;;;;;;0.00;0.00;;;15.00;99.90;;;;;;5117223;28;20050;-80
2022/06/20 06:39:52;;;;;;;0.00;0.00;;;15.00;99.90;;;;;;5116943;28;20048;-80
2022/06/20 06:42:18;;;;;;;0.00;0.00;;;15.10;99.90;;;;;;5116941;28;20391;-80
2022/06/20 06:44:47;;;;;;;0.10;0.10;;;15.00;99.90;;;;;;5117188;28;20051;-80
2022/06/20 06:47:20;;;;;;;0.00;0.00;;;15.00;99.90;;;;;;5099779;28;20060;-80
2022/06/20 06:49:50;;;;;;;0.00;0.00;;;14.90;99.90;;;;;;5100364;28;20136;-80
2022/06/20 06:52:38;;;;;;;0.00;0.00;;;14.90;99.90;;;;;;5116875;28;20051;-80
2022/06/20 06:55:28;;;;;;;0.00;0.00;;;15.00;99.90;;;;;;5099663;28;20075;-80
2022/06/20 06:58:03;;;;;;;0.00;0.00;;;15.00;99.90;;;;;;5117023;28;20040;-80
2022/06/20 07:00:36;;;;;;;0.00;0.00;;;15.00;99.90;;;;;;5116978;28;20050;-80
2022/06/20 07:03:11;;;;;;;0.00;0.00;;;15.10;99.90;;;;;;5117220;28;20051;-81
2022/06/20 07:05:42;;;;;;;0.00;0.00;;;15.10;99.90;;;;;;5116334;28;20372;-81
2022/06/20 07:08:18;;;;;;;0.52;0.52;;;15.20;99.90;;;;;;5116665;28;20048;-81
2022/06/20 07:10:47;;;;;;;0.00;0.00;;;15.20;99.90;;;;;;5116763;28;20043;-81
2022/06/20 07:13:23;;;;;;;0.10;0.00;;;15.30;99.90;;;;;;5116597;28;20134;-81
2022/06/20 07:15:55;;;;;;;0.05;0.03;;;15.40;99.90;;;;;;5099200;28;20051;-81
2022/06/20 07:18:42;;;;;;;0.00;0.00;;;15.40;99.90;;;;;;5116759;28;20048;-80
2022/06/20 07:21:12;;;;;;;0.00;0.00;;;15.60;99.90;;;;;;5099584;28;20192;-80
2022/06/20 07:23:39;;;;;;;0.00;0.00;;;15.60;99.90;;;;;;5099088;28;20497;-80
2022/06/20 07:26:04;;;;;;;0.00;0.00;;;15.80;99.90;;;;;;5116351;28;20059;-80
2022/06/20 07:28:41;;;;;;;0.00;0.00;;;15.90;99.90;;;;;;5099216;28;20507;-80
2022/06/20 07:31:16;;;;;;;0.00;0.00;;;16.10;99.90;;;;;;5116161;28;20100;-80
2022/06/20 07:33:58;;;;;;;0.00;0.00;;;16.40;99.90;;;;;;5099010;28;20087;-81
2022/06/20 07:36:30;;;;;;;0.95;0.65;;;16.50;99.90;;;;;;5115083;28;20055;-81
2022/06/20 07:39:19;;;;;;;0.05;0.05;;;16.60;99.90;;;;;;5098766;28;20059;-80
2022/06/20 07:42:05;;;;;;;0.00;0.00;;;16.50;99.90;;;;;;5116212;28;20040;-80
2022/06/20 07:44:40;;;;;;;0.00;0.00;;;16.60;99.90;;;;;;5098528;28;20437;-80
2022/06/20 07:47:11;;;;;;;0.00;0.00;;;16.70;99.90;;;;;;5115874;28;20043;-81
2022/06/20 07:49:42;;;;;;;0.10;0.10;;;16.90;99.90;;;;;;5116125;28;20081;-80
2022/06/20 07:52:32;;;;;;;0.15;0.00;;;17.00;99.90;;;;;;5118449;27;20530;-80
2022/06/20 07:55:02;;;;;;;0.25;0.00;;;17.10;99.90;;;;;;5118995;27;20135;-81
2022/06/20 07:57:34;;;;;;;0.70;0.32;;;17.20;99.90;;;;;;5119038;27;20059;-81
2022/06/20 08:00:07;;;;;;;0.00;0.00;;;17.30;99.90;;;;;;5119301;27;20091;-80
2022/06/20 08:03:08;;;;;;;0.00;0.00;;;17.30;99.90;;;;;;5102471;27;20047;-81
2022/06/20 08:05:55;;;;;;;0.15;0.03;;;17.40;99.90;;;;;;5102026;27;20192;-80
2022/06/20 08:08:26;;;;;;;2.08;0.52;;;17.50;99.90;;;;;;5119162;27;20055;-80
2022/06/20 08:11:08;;;;;;;0.32;0.08;;;17.50;99.90;;;;;;5101203;27;20517;-80
2022/06/20 08:13:49;;;;;;;0.00;0.00;;;17.50;99.10;;;;;;5117727;27;20051;-81
2022/06/20 08:16:21;;;;;;;0.00;0.00;;;17.60;99.70;;;;;;5118730;27;20095;-81
2022/06/20 08:18:47;;;;;;;0.10;0.10;;;17.70;99.30;;;;;;5118933;27;20043;-81
2022/06/20 08:21:46;;;;;;;0.00;0.00;;;17.70;99.40;;;;;;5118602;27;20055;-81
2022/06/20 08:24:28;;;;;;;0.22;0.22;;;17.60;99.20;;;;;;5076887;28;20067;-81
2022/06/20 08:27:06;;;;;;;0.40;0.20;;;17.50;97.90;;;;;;5076686;28;20117;-81
2022/06/20 08:29:46;;;;;;;1.08;0.25;;;17.60;98.60;;;;;;5059626;28;20052;-81
2022/06/20 08:32:38;;;;;;;0.13;0.03;;;17.70;98.60;;;;;;5076940;28;20052;-80
2022/06/20 08:35:27;;;;;;;0.00;0.00;;;17.80;97.70;;;;;;5076675;28;20183;-81
2022/06/20 08:38:06;;;;;;;0.00;0.00;;;17.90;97.40;;;;;;5059736;28;20052;-81
2022/06/20 08:40:54;;;;;;;0.00;0.00;;;18.10;97.10;;;;;;5076687;28;20056;-80
2022/06/20 08:43:47;;;;;;;0.00;0.00;;;18.30;97.60;;;;;;5076686;28;20087;-80
2022/06/20 08:46:36;;;;;;;0.00;0.00;;;18.50;96.60;;;;;;5076254;28;20048;-80
2022/06/20 08:49:07;;;;;;;0.00;0.00;;;18.40;96.90;;;;;;5076384;28;20147;-81
2022/06/20 08:52:09;;;;;;;0.00;0.00;;;18.30;96.30;;;;;;5059564;28;20151;-81
2022/06/20 08:54:43;;;;;;;0.00;0.00;;;18.10;96.30;;;;;;5076130;28;20052;-81
2022/06/20 08:57:17;;;;;;;0.00;0.00;;;18.00;97.10;;;;;;5076056;28;20519;-81
2022/06/20 09:00:05;;;;;;;0.00;0.00;;;18.00;97.10;;;;;;5083103;27;20062;-81
2022/06/20 09:03:06;;;;;;;0.10;0.00;;;18.00;97.20;;;;;;5117905;27;20047;-81
2022/06/20 09:05:57;;;;;;;0.00;0.00;;;17.90;96.60;;;;;;5116182;27;20491;-81
2022/06/20 09:08:35;;;;;;;0.00;0.00;;;18.00;97.00;;;;;;5076527;28;20138;-81
2022/06/20 09:11:01;;;;;;;0.00;0.00;;;18.00;97.30;;;;;;5059323;28;20048;-81
2022/06/20 09:13:42;;;;;;;0.00;0.00;;;18.20;97.30;;;;;;5075797;28;20052;-81
2022/06/20 09:16:26;;;;;;;0.00;0.00;;;18.40;97.30;;;;;;5059049;28;20515;-81
2022/06/20 09:19:23;;;;;;;0.00;0.00;;;18.30;95.90;;;;;;5059040;28;20060;-80
2022/06/20 09:22:01;;;;;;;0.15;0.15;;;18.50;95.90;;;;;;5076073;28;20044;-81
2022/06/20 09:24:50;;;;;;;0.00;0.00;;;18.70;95.50;;;;;;5058937;28;20488;-81
2022/06/20 09:27:30;;;;;;;0.30;0.30;;;18.80;94.50;;;;;;5058235;28;20424;-81
2022/06/20 09:30:05;;;;;;;0.00;0.00;;;18.60;94.60;;;;;;5075524;28;20055;-81
2022/06/20 09:32:51;;;;;;;0.13;0.13;;;18.40;95.30;;;;;;5076014;28;20060;-80
2022/06/20 09:35:45;;;;;;;0.00;0.00;;;18.30;95.40;;;;;;5059242;28;20535;-81
2022/06/20 09:38:35;;;;;;;0.00;0.00;;;18.40;95.30;;;;;;5057833;28;20052;-80
2022/06/20 09:41:07;;;;;;;0.85;0.43;;;18.60;96.20;;;;;;5075552;28;20130;-80
2022/06/20 09:44:08;;;;;;;0.00;0.00;;;18.90;95.20;;;;;;5075567;28;20506;-80
2022/06/20 09:46:56;;;;;;;0.00;0.00;;;19.10;94.40;;;;;;5099922;27;20123;-81
2022/06/20 09:49:37;;;;;;;0.10;0.10;;;19.40;94.50;;;;;;5116980;27;20162;-81
2022/06/20 09:52:36;;;;;;;0.03;0.00;;;19.80;93.90;;;;;;5099692;27;20442;-80
2022/06/20 09:55:19;;;;;;;0.00;0.00;;;19.90;92.50;;;;;;5100032;27;20491;-80
2022/06/20 09:58:12;;;;;;;0.00;0.00;;;20.10;93.10;;;;;;5116918;27;20050;-81
2022/06/20 10:00:56;;;;;;;0.00;0.00;;;19.90;91.90;;;;;;5099839;27;20039;-81
2022/06/20 10:03:59;;;;;;;0.20;0.10;;;19.60;92.80;;;;;;5099680;27;20482;-80
2022/06/20 10:06:55;;;;;;;0.00;0.00;;;19.70;92.70;;;;;;5099728;28;20078;-80
2022/06/20 10:09:30;;;;;;;0.13;0.13;;;19.70;91.80;;;;;;5117294;27;20043;-80
2022/06/20 10:12:17;;;;;;;0.00;0.00;;;19.50;91.80;;;;;;5099679;28;20471;-81
2022/06/20 10:15:04;;;;;;;0.00;0.00;;;19.20;91.70;;;;;;5116389;28;20047;-80
2022/06/20 10:17:57;;;;;;;0.00;0.00;;;19.30;92.70;;;;;;5099642;28;20054;-80
2022/06/20 10:20:31;;;;;;;0.00;0.00;;;19.70;93.00;;;;;;5116906;28;20082;-80
2022/06/20 10:23:25;;;;;;;0.00;0.00;;;20.10;91.50;;;;;;5116704;28;20391;-80
2022/06/20 10:26:07;;;;;;;0.03;0.03;;;20.00;91.40;;;;;;5117053;28;20047;-80
2022/06/20 10:28:47;;;;;;;0.00;0.00;;;19.80;91.50;;;;;;5099885;28;20043;-80
2022/06/20 10:31:42;;;;;;;0.00;0.00;;;19.60;91.60;;;;;;5116436;28;20046;-80
2022/06/20 10:34:27;;;;;;;3.10;0.35;;;19.30;91.50;;;;;;5099104;28;20048;-80
2022/06/20 10:37:07;;;;;;;0.00;0.00;;;19.10;91.60;;;;;;5116552;28;20050;-80
2022/06/20 10:40:10;;;;;;;0.00;0.00;;;18.80;91.70;;;;;;5116493;28;20394;-81
2022/06/20 10:42:38;;;;;;;0.10;0.10;;;18.80;92.90;;;;;;5099575;28;20082;-81
2022/06/20 10:45:25;;;;;;;0.00;0.00;;;18.80;93.30;;;;;;5098628;28;20061;-80
2022/06/20 10:48:06;;;;;;;0.00;0.00;;;19.00;93.60;;;;;;5116028;28;20523;-80
2022/06/20 10:50:38;;;;;;;0.00;0.00;;;19.20;93.50;;;;;;5116932;28;20126;-80
2022/06/20 10:53:29;;;;;;;0.00;0.00;;;19.30;92.30;;;;;;5098279;28;20070;-80
2022/06/20 10:56:23;;;;;;;0.00;0.00;;;19.80;92.70;;;;;;5057369;28;20492;-80
2022/06/20 10:59:13;;;;;;;0.00;0.00;;;20.30;92.20;;;;;;5071534;28;20048;-81
2022/06/20 11:01:57;;;;;;;0.00;0.00;;;20.90;91.20;;;;;;5058014;28;20060;-81
2022/06/20 11:04:48;;;;;;;0.00;0.00;;;20.90;90.30;;;;;;5058035;28;20439;-81
2022/06/20 11:07:36;;;;;;;0.00;0.00;;;20.60;90.70;;;;;;5075039;28;20144;-81
2022/06/20 11:10:04;;;;;;;0.30;0.30;;;20.70;90.50;;;;;;5075342;28;20052;-81
2022/06/20 11:12:39;;;;;;;0.00;0.00;;;20.60;90.30;;;;;;5061518;28;20485;-81
2022/06/20 11:15:27;;;;;;;0.00;0.00;;;20.40;90.20;;;;;;5077902;28;20093;-81
2022/06/20 11:18:14;;;;;;;0.00;0.00;;;20.10;90.10;;;;;;5061197;28;20052;-80
2022/06/20 11:20:42;;;;;;;0.00;0.00;;;19.90;91.00;;;;;;5061385;28;20047;-80
2022/06/20 11:23:19;;;;;;;0.10;0.10;;;20.10;91.80;;;;;;5078207;28;20044;-80
2022/06/20 11:26:12;;;;;;;0.00;0.00;;;20.30;90.80;;;;;;5077772;28;20529;-80
2022/06/20 11:28:44;;;;;;;0.00;0.00;;;20.70;90.60;;;;;;5078109;28;20054;-80
2022/06/20 11:31:22;;;;;;;0.00;0.00;;;21.00;90.10;;;;;;5061451;28;20121;-81
2022/06/20 11:34:45;;;;;;;0.00;0.00;;;21.30;90.20;;;;;;5095681;27;20059;-80
2022/06/20 11:37:28;;;;;;;0.00;0.00;;;21.60;89.50;;;;;;5077746;28;20044;-81
2022/06/20 11:40:27;;;;;;;0.00;0.00;;;21.40;82.80;;;;;;5061082;28;20048;-81
2022/06/20 11:43:30;;;;;;;0.00;0.00;;;20.90;84.30;;;;;;5077702;28;20051;-80
2022/06/20 11:46:44;;;;;;;0.08;0.08;;;20.70;85.80;;;;;;5077671;28;20127;-81
2022/06/20 11:49:25;;;;;;;0.00;0.00;;;20.90;86.30;;;;;;5017683;28;20513;-80
2022/06/20 11:52:03;;;;;;;0.00;0.00;;;20.80;85.90;;;;;;5016496;28;20052;-80
2022/06/20 11:54:50;;;;;;;1.15;0.32;;;20.60;85.30;;;;;;5017631;28;20049;-80
2022/06/20 11:57:41;;;;;;;1.13;0.30;;;20.20;87.90;;;;;;5018120;28;20049;-81
2022/06/20 12:00:13;;;;;;;0.00;0.00;;;20.00;87.70;;;;;;5016975;28;20058;-80
2022/06/20 12:03:04;;;;;;;0.00;0.00;;;19.80;87.70;;;;;;5001276;28;20099;-80
2022/06/20 12:05:39;;;;;;;0.00;0.00;;;20.10;90.50;;;;;;5017462;28;20064;-80
2022/06/20 12:08:24;;;;;;;0.00;0.00;;;20.50;88.70;;;;;;5028332;28;20049;-80
2022/06/20 12:10:54;;;;;;;0.10;0.10;;;20.90;90.20;;;;;;5020262;28;20380;-80
2022/06/20 12:13:52;;;;;;;0.00;0.00;;;21.30;87.10;;;;;;5037251;28;20045;-80
2022/06/20 12:16:40;;;;;;;0.00;0.00;;;21.60;84.10;;;;;;5037076;28;20045;-80
2022/06/20 12:25:22;;;;;;;0.00;0.00;;;21.90;83.00;;;;;;5085861;27;20134;-80
2022/06/20 12:27:49;;;;;;;0.57;0.35;;;22.00;83.40;;;;;;5118640;27;20047;-80
2022/06/20 12:30:16;;;;;;;0.10;0.10;;;22.10;81.50;;;;;;5101725;27;20395;-80
2022/06/20 12:32:46;;;;;;;0.00;0.00;;;22.10;81.40;;;;;;5118406;27;20458;-81
2022/06/20 12:35:21;;;;;;;0.00;0.00;;;21.90;82.50;;;;;;5101448;27;20152;-80
2022/06/20 12:37:57;;;;;;;0.00;0.00;;;21.60;84.20;;;;;;5118662;27;20395;-81
2022/06/20 12:40:36;;;;;;;0.00;0.00;;;21.20;83.00;;;;;;5100954;27;20047;-81
2022/06/20 12:43:21;;;;;;;0.10;0.00;;;20.80;84.80;;;;;;5118582;27;20051;-81
2022/06/20 12:46:16;;;;;;;0.00;0.00;;;20.40;84.30;;;;;;5118382;27;20054;-81
2022/06/20 12:48:51;;;;;;;1.65;0.32;;;20.20;86.60;;;;;;5117886;27;20043;-81
2022/06/20 12:51:26;;;;;;;;;;;20.50;89.10;;;;;;5101819;27;20039;-80
2022/06/20 12:54:20;;;;;;;0.00;0.00;;;20.90;87.70;;;;;;5117684;27;19923;-80
2022/06/20 12:57:03;;;;;;;0.00;0.00;;;21.20;84.90;;;;;;5118083;27;20055;-81
2022/06/20 12:59:58;;;;;;;0.00;0.00;;;21.50;85.60;;;;;;5101207;27;20053;-81
2022/06/20 13:02:35;;;;;;;0.00;0.00;;;21.70;83.60;;;;;;5100856;27;20062;-80
2022/06/20 13:05:46;;;;;;;0.00;0.00;;;21.90;80.60;;;;;;5117693;27;20051;-81
2022/06/20 13:08:40;;;;;;;0.00;0.00;;;22.10;80.20;;;;;;5076365;28;20051;-81
2022/06/20 13:11:30;;;;;;;0.00;0.00;;;22.40;78.60;;;;;;5059653;28;20048;-80
2022/06/20 13:14:14;;;;;;;0.00;0.00;;;22.30;77.80;;;;;;5059224;28;20051;-81
2022/06/20 13:17:10;;;;;;;0.00;0.00;;;22.40;79.00;;;;;;5076030;28;20093;-80
2022/06/20 13:19:55;;;;;;;0.00;0.00;;;22.20;80.10;;;;;;5075957;28;20048;-80
2022/06/20 13:22:52;;;;;;;0.00;0.00;;;21.90;78.50;;;;;;5075981;28;20048;-81
2022/06/20 13:25:34;;;;;;;6.22;0.90;;;21.50;80.20;;;;;;5058967;28;20049;-80
2022/06/20 13:28:08;;;;;;;0.10;0.10;;;21.10;81.20;;;;;;5059244;28;20078;-80
2022/06/20 13:30:45;;;;;;;0.00;0.00;;;20.80;83.00;;;;;;5075577;28;20098;-80
2022/06/20 13:33:35;;;;;;;0.15;0.15;;;20.40;81.80;;;;;;5075984;28;20044;-80
2022/06/20 13:36:20;;;;;;;0.00;0.00;;;20.10;83.00;;;;;;5075533;28;20047;-80
2022/06/20 13:39:10;;;;;;;0.45;0.10;;;20.10;86.00;;;;;;5058895;28;20079;-80
2022/06/20 13:41:45;;;;;;;0.00;0.00;;;20.50;85.50;;;;;;5058972;28;20090;-80
2022/06/20 13:44:46;;;;;;;0.00;0.00;;;20.80;83.40;;;;;;5093421;27;20058;-80
2022/06/20 13:47:56;;;;;;;0.00;0.00;;;20.90;82.60;;;;;;5117072;27;20057;-80
2022/06/20 13:50:28;;;;;;;0.00;0.00;;;21.20;82.60;;;;;;5115384;27;20051;-80
2022/06/20 13:53:12;;;;;;;0.00;0.00;;;21.10;78.70;;;;;;5116595;27;20379;-80
2022/06/20 13:56:02;;;;;;;0.00;0.00;;;20.80;80.10;;;;;;5134801;27;20062;-80
2022/06/20 13:58:54;;;;;;;0.00;0.00;;;20.40;81.70;;;;;;5100452;27;20043;-80
2022/06/20 14:01:22;;;;;;;0.00;0.00;;;20.10;82.20;;;;;;5099778;27;20495;-80